< < Back
Terminal Aerodrome Forecast


Current Version              Previous Versions:   1  2  3  4  5  6  7  8  9  

Terminal Aerodrome Forecast

430
FTUS42 KILM 270553 CCA
TAFILM
TAF COR
KILM 270553Z 2706/2806 15005KT P6SM BKN050
     FM271600 15010KT P6SM SCT050
     FM280200 VRB04KT P6SM SCT040=

Latest METAR

033
SAUS70 KWBC 280200 RRL
MTRILM
METAR KILM 280153Z 10003KT 10SM CLR 22/19 A3013 RMK AO2 SLP202
T02220189


USA.gov is the U.S. government's official web portal to all federal, state and local government web resources and services.